createdAt,value
2023-05-10T00:00:42.617Z,5.85
2023-05-10T00:01:50.711Z,5.82
2023-05-10T00:02:56.979Z,5.80
2023-05-10T00:04:03.411Z,5.79
2023-05-10T00:05:10.882Z,5.79
2023-05-10T00:06:17.396Z,5.79
2023-05-10T00:07:23.820Z,5.79
2023-05-10T00:08:30.530Z,5.78
2023-05-10T00:09:37.245Z,5.76
2023-05-10T00:10:43.861Z,5.75
2023-05-10T00:11:49.847Z,5.74
2023-05-10T00:12:56.123Z,5.72
2023-05-10T00:14:02.069Z,5.71
2023-05-10T00:15:11.691Z,5.70
2023-05-10T00:16:17.585Z,5.68
2023-05-10T00:17:23.771Z,5.66
2023-05-10T00:18:29.697Z,5.64
2023-05-10T00:19:35.875Z,5.63
2023-05-10T00:20:42.332Z,5.62
2023-05-10T00:21:48.470Z,5.62
2023-05-10T00:22:54.948Z,5.62
2023-05-10T00:24:01.628Z,5.62
2023-05-10T00:25:11.554Z,5.62
2023-05-10T00:26:18.129Z,5.60
2023-05-10T00:27:24.595Z,5.60
2023-05-10T00:28:31.701Z,5.58
2023-05-10T00:29:38.152Z,5.57
2023-05-10T00:30:44.692Z,5.56
2023-05-10T00:31:51.139Z,5.55
2023-05-10T00:32:57.468Z,5.54
2023-05-10T00:34:04.068Z,5.53
2023-05-10T00:35:12.149Z,5.52
2023-05-10T00:36:17.833Z,5.50
2023-05-10T00:37:23.751Z,5.49
2023-05-10T00:38:29.847Z,5.49
2023-05-10T00:39:36.063Z,5.49
2023-05-10T00:40:42.080Z,5.51
2023-05-10T00:41:48.505Z,5.51
2023-05-10T00:42:54.613Z,5.51
2023-05-10T00:44:01.913Z,5.51
2023-05-10T00:45:09.760Z,5.50
2023-05-10T00:46:17.084Z,5.48
2023-05-10T00:47:23.741Z,5.47
2023-05-10T00:48:31.286Z,5.46
2023-05-10T00:49:37.745Z,5.44
2023-05-10T00:50:44.024Z,5.42
2023-05-10T00:51:50.667Z,5.40
2023-05-10T00:52:56.678Z,5.38
2023-05-10T00:54:03.437Z,5.36
2023-05-10T00:55:13.087Z,5.36
2023-05-10T00:56:19.191Z,5.35
2023-05-10T00:57:25.277Z,5.34
2023-05-10T00:58:32.208Z,5.33
2023-05-10T00:59:38.154Z,5.33
2023-05-10T01:00:47.472Z,5.32
2023-05-10T01:01:53.410Z,5.30
2023-05-10T01:02:59.739Z,5.29
2023-05-10T01:04:06.864Z,5.26
2023-05-10T01:05:13.658Z,5.23
2023-05-10T01:06:20.187Z,5.20
2023-05-10T01:07:26.513Z,5.16
2023-05-10T01:08:32.996Z,5.11
2023-05-10T01:09:38.866Z,5.08
2023-05-10T01:10:46.629Z,5.04
2023-05-10T01:11:52.979Z,5.01
2023-05-10T01:13:00.560Z,4.99
2023-05-10T01:14:07.973Z,4.96
2023-05-10T01:15:16.123Z,4.93
2023-05-10T01:16:22.448Z,4.89
2023-05-10T01:17:28.890Z,4.86
2023-05-10T01:18:37.556Z,4.82
2023-05-10T01:19:43.846Z,4.79
2023-05-10T01:20:56.776Z,4.76
2023-05-10T01:22:16.877Z,4.73
2023-05-10T01:23:38.811Z,4.69
2023-05-10T01:25:19.756Z,4.66
2023-05-10T01:26:46.611Z,4.63
2023-05-10T01:28:18.655Z,4.60
2023-05-10T01:30:14.951Z,4.58
2023-05-10T01:32:01.997Z,4.54
2023-05-10T01:33:17.029Z,4.50
2023-05-10T01:34:28.707Z,4.47
2023-05-10T01:35:42.824Z,4.44
2023-05-10T01:36:56.811Z,4.41
2023-05-10T01:38:12.994Z,4.39
2023-05-10T01:39:25.842Z,4.36
2023-05-10T01:40:38.624Z,4.35
2023-05-10T01:41:52.537Z,4.33
2023-05-10T01:43:03.634Z,4.32
2023-05-10T01:44:19.807Z,4.31
2023-05-10T01:45:31.750Z,4.31
2023-05-10T01:46:39.451Z,4.31
2023-05-10T01:47:50.252Z,4.30
2023-05-10T01:49:00.357Z,4.29
2023-05-10T01:50:11.706Z,4.28
2023-05-10T01:51:22.925Z,4.26
2023-05-10T01:52:38.298Z,4.26
2023-05-10T01:53:43.416Z,4.25
2023-05-10T01:54:55.236Z,4.23
2023-05-10T01:56:03.829Z,4.22
2023-05-10T01:57:15.290Z,4.23
2023-05-10T01:58:26.089Z,4.25
2023-05-10T01:59:37.443Z,4.26
2023-05-10T02:00:46.628Z,4.28
2023-05-10T02:01:52.276Z,4.31
2023-05-10T02:03:00.446Z,4.32
2023-05-10T02:04:08.213Z,4.33
2023-05-10T02:05:16.353Z,4.34
2023-05-10T02:06:25.344Z,4.35
2023-05-10T02:07:37.251Z,4.36
2023-05-10T02:08:44.311Z,4.37
2023-05-10T02:09:51.644Z,4.36
2023-05-10T02:10:59.606Z,4.38
2023-05-10T02:12:09.293Z,4.37
2023-05-10T02:13:17.261Z,4.37
2023-05-10T02:14:25.590Z,4.37
2023-05-10T02:15:33.372Z,4.37
2023-05-10T02:16:41.802Z,4.38
2023-05-10T02:17:49.739Z,4.38
2023-05-10T02:18:57.847Z,4.38
2023-05-10T02:20:07.026Z,4.38
2023-05-10T02:21:12.040Z,4.37
2023-05-10T02:22:19.502Z,4.36
2023-05-10T02:23:27.362Z,4.35
2023-05-10T02:24:35.947Z,4.34
2023-05-10T02:25:43.998Z,4.34
2023-05-10T02:26:52.593Z,4.34
2023-05-10T02:28:01.202Z,4.34
2023-05-10T02:29:09.787Z,4.35
2023-05-10T02:30:17.196Z,4.37
2023-05-10T02:31:24.313Z,4.38
2023-05-10T02:32:32.588Z,4.41
2023-05-10T02:33:41.474Z,4.43
2023-05-10T02:34:52.962Z,4.45
2023-05-10T02:36:00.357Z,4.47
2023-05-10T02:37:08.333Z,4.49
2023-05-10T02:38:14.813Z,4.49
2023-05-10T02:39:22.369Z,4.49
2023-05-10T02:40:29.588Z,4.49
2023-05-10T02:41:36.461Z,4.48
2023-05-10T02:42:45.510Z,4.48
2023-05-10T02:43:53.191Z,4.48
2023-05-10T02:45:03.897Z,4.50
2023-05-10T02:46:09.885Z,4.51
2023-05-10T02:47:16.251Z,4.53
2023-05-10T02:48:22.899Z,4.54
2023-05-10T02:49:29.327Z,4.56
2023-05-10T02:50:37.262Z,4.56
2023-05-10T02:51:47.310Z,4.56
2023-05-10T02:52:57.387Z,4.56
2023-05-10T02:54:08.526Z,4.56
2023-05-10T02:55:19.068Z,4.56
2023-05-10T02:56:36.984Z,4.55
2023-05-10T02:57:48.037Z,4.54
2023-05-10T02:58:54.282Z,4.53
2023-05-10T03:00:01.407Z,4.53
2023-05-10T03:01:09.050Z,4.53
2023-05-10T03:02:15.520Z,4.54
2023-05-10T03:03:23.312Z,4.55
2023-05-10T03:04:29.458Z,4.56
2023-05-10T03:05:36.805Z,4.57
2023-05-10T03:06:43.753Z,4.57
2023-05-10T03:07:52.995Z,4.57
2023-05-10T03:08:57.759Z,4.57
2023-05-10T03:10:04.795Z,4.56
2023-05-10T03:11:25.009Z,4.55
2023-05-10T03:12:43.374Z,4.54
2023-05-10T03:14:03.392Z,4.53
2023-05-10T03:15:18.902Z,4.53
2023-05-10T03:16:30.548Z,4.54
2023-05-10T03:17:48.150Z,4.56
2023-05-10T03:19:02.369Z,4.58
2023-05-10T03:20:15.748Z,4.60
2023-05-10T03:21:27.288Z,4.64
2023-05-10T03:22:37.388Z,4.68
2023-05-10T03:23:48.272Z,4.72
2023-05-10T03:24:58.651Z,4.78
2023-05-10T03:26:06.028Z,4.83
2023-05-10T03:27:15.364Z,4.85
2023-05-10T03:28:22.059Z,4.86
2023-05-10T03:29:29.935Z,4.87
2023-05-10T03:30:36.828Z,4.87
2023-05-10T03:31:43.252Z,4.88
2023-05-10T03:32:49.632Z,4.89
2023-05-10T03:33:55.804Z,4.91
2023-05-10T03:35:02.604Z,4.94
2023-05-10T03:36:10.653Z,4.98
2023-05-10T03:37:16.763Z,5.00
2023-05-10T03:38:22.662Z,5.04
2023-05-10T03:39:29.338Z,5.06
2023-05-10T03:40:35.500Z,5.09
2023-05-10T03:41:42.769Z,5.12
2023-05-10T03:42:48.831Z,5.15
2023-05-10T03:43:54.954Z,5.18
2023-05-10T03:45:01.037Z,5.20
2023-05-10T03:46:07.574Z,5.24
2023-05-10T03:47:13.725Z,5.27
2023-05-10T03:48:20.352Z,5.30
2023-05-10T03:49:26.373Z,5.33
2023-05-10T03:50:32.865Z,5.37
2023-05-10T03:51:39.234Z,5.41
2023-05-10T03:52:45.485Z,5.45
2023-05-10T03:53:51.574Z,5.52
2023-05-10T03:54:57.592Z,5.57
2023-05-10T03:56:04.468Z,5.63
2023-05-10T03:57:10.850Z,5.68
2023-05-10T03:58:16.581Z,5.72
2023-05-10T03:59:22.694Z,5.76
2023-05-10T04:00:28.575Z,5.78
2023-05-10T04:01:34.592Z,5.79
2023-05-10T04:02:41.564Z,5.80
2023-05-10T04:03:48.062Z,5.80
2023-05-10T04:04:54.125Z,5.80
2023-05-10T04:06:04.022Z,5.82
2023-05-10T04:07:11.530Z,5.84
2023-05-10T04:08:18.231Z,5.86
2023-05-10T04:09:24.416Z,5.89
2023-05-10T04:10:30.137Z,5.91
2023-05-10T04:11:36.666Z,5.92
2023-05-10T04:12:43.348Z,5.94
2023-05-10T04:13:50.297Z,5.95
2023-05-10T04:14:56.143Z,5.94
2023-05-10T04:16:02.496Z,5.94
2023-05-10T04:17:08.932Z,5.92
2023-05-10T04:18:15.210Z,5.91
2023-05-10T04:19:21.432Z,5.89
2023-05-10T04:20:27.496Z,5.86
2023-05-10T04:21:33.488Z,5.82
2023-05-10T04:22:39.827Z,5.78
2023-05-10T04:23:46.290Z,5.74
2023-05-10T04:24:52.153Z,5.72
2023-05-10T04:26:03.201Z,5.71
2023-05-10T04:27:09.276Z,5.69
2023-05-10T04:28:15.492Z,5.70
2023-05-10T04:29:21.528Z,5.70
2023-05-10T04:30:29.755Z,5.70
2023-05-10T04:31:37.404Z,5.72
2023-05-10T04:32:44.853Z,5.72
2023-05-10T04:33:51.569Z,5.76
2023-05-10T04:34:57.747Z,5.81
2023-05-10T04:36:05.218Z,5.85
2023-05-10T04:37:11.062Z,5.89
2023-05-10T04:38:18.546Z,5.93
2023-05-10T04:39:24.760Z,5.97
2023-05-10T04:40:31.066Z,6.02
2023-05-10T04:41:38.647Z,6.07
2023-05-10T04:42:44.957Z,6.14
2023-05-10T04:43:50.872Z,6.20
2023-05-10T04:44:57.311Z,6.27
2023-05-10T04:46:03.824Z,6.35
2023-05-10T04:47:12.608Z,6.43
2023-05-10T04:48:18.747Z,6.53
2023-05-10T04:49:25.144Z,6.62
2023-05-10T04:50:31.058Z,6.71
2023-05-10T04:51:37.079Z,6.80
2023-05-10T04:52:42.935Z,6.89
2023-05-10T04:54:01.659Z,6.97
2023-05-10T04:55:12.451Z,7.04
2023-05-10T04:56:18.552Z,7.10
2023-05-10T04:57:24.795Z,7.13
2023-05-10T04:58:30.874Z,7.13
2023-05-10T04:59:39.094Z,7.13
2023-05-10T05:00:45.331Z,7.09
2023-05-10T05:01:51.319Z,7.07
2023-05-10T05:02:57.403Z,7.06
2023-05-10T05:04:04.108Z,7.06
2023-05-10T05:05:11.229Z,7.06
2023-05-10T05:06:17.332Z,7.05
2023-05-10T05:07:23.710Z,7.03
2023-05-10T05:08:29.854Z,7.00
2023-05-10T05:09:35.778Z,6.97
2023-05-10T05:10:41.611Z,6.94
2023-05-10T05:11:47.909Z,6.97
2023-05-10T05:12:54.247Z,6.99
2023-05-10T05:14:01.442Z,7.01
2023-05-10T05:15:10.827Z,7.02
2023-05-10T05:16:17.663Z,7.06
2023-05-10T05:17:23.779Z,7.09
2023-05-10T05:18:29.753Z,7.12
2023-05-10T05:19:37.343Z,7.17
2023-05-10T05:20:43.357Z,7.22
2023-05-10T05:21:49.356Z,7.24
2023-05-10T05:22:55.146Z,7.28
2023-05-10T05:24:02.269Z,7.32
2023-05-10T05:25:10.955Z,7.36
2023-05-10T05:26:17.191Z,7.41
2023-05-10T05:27:26.092Z,7.45
2023-05-10T05:28:35.373Z,7.49
2023-05-10T05:29:42.218Z,7.51
2023-05-10T05:30:49.183Z,7.53
2023-05-10T05:31:55.689Z,7.53
2023-05-10T05:33:02.078Z,7.52
2023-05-10T05:34:08.360Z,7.52
2023-05-10T05:35:15.056Z,7.55
2023-05-10T05:36:21.097Z,7.58
2023-05-10T05:37:27.840Z,7.62
2023-05-10T05:38:39.537Z,7.65
2023-05-10T05:39:46.168Z,7.69
2023-05-10T05:40:51.905Z,7.73
2023-05-10T05:41:57.937Z,7.78
2023-05-10T05:43:04.379Z,7.86
2023-05-10T05:44:11.096Z,7.91
2023-05-10T05:45:18.112Z,7.94
2023-05-10T05:46:24.403Z,7.92
2023-05-10T05:47:30.443Z,7.93
2023-05-10T05:48:36.774Z,7.93
2023-05-10T05:49:43.184Z,7.92
2023-05-10T05:50:49.020Z,7.94
2023-05-10T05:51:55.813Z,7.94
2023-05-10T05:53:02.150Z,7.96
2023-05-10T05:54:09.369Z,7.99
2023-05-10T05:55:16.043Z,8.00
2023-05-10T05:56:25.550Z,8.05
2023-05-10T05:57:30.314Z,8.11
2023-05-10T05:58:36.740Z,8.14
2023-05-10T05:59:45.082Z,8.18
2023-05-10T06:00:51.577Z,8.21
2023-05-10T06:01:58.447Z,8.25
2023-05-10T06:03:04.722Z,8.31
2023-05-10T06:04:11.519Z,8.36
2023-05-10T06:05:19.534Z,8.41
2023-05-10T06:06:26.088Z,8.46
2023-05-10T06:07:31.931Z,8.51
2023-05-10T06:08:44.589Z,8.55
2023-05-10T06:09:50.633Z,8.64
2023-05-10T06:10:56.578Z,8.70
2023-05-10T06:12:02.732Z,8.77
2023-05-10T06:13:09.379Z,8.81
2023-05-10T06:14:15.239Z,8.85
2023-05-10T06:15:21.703Z,8.89
2023-05-10T06:16:27.897Z,8.94
2023-05-10T06:17:34.056Z,9.00
2023-05-10T06:18:40.767Z,9.04
2023-05-10T06:19:46.839Z,9.09
2023-05-10T06:20:54.337Z,9.15
2023-05-10T06:22:00.451Z,9.20
2023-05-10T06:23:06.600Z,9.26
2023-05-10T06:24:12.667Z,9.30
2023-05-10T06:25:19.582Z,9.35
2023-05-10T06:26:26.606Z,9.43
2023-05-10T06:27:32.522Z,9.52
2023-05-10T06:28:41.267Z,9.62
2023-05-10T06:29:48.226Z,9.73
2023-05-10T06:30:54.691Z,9.81
2023-05-10T06:32:01.046Z,9.87
2023-05-10T06:33:07.475Z,9.91
2023-05-10T06:34:15.909Z,9.94
2023-05-10T06:35:22.154Z,9.94
2023-05-10T06:36:28.927Z,9.96
2023-05-10T06:37:35.696Z,9.99
2023-05-10T06:38:42.270Z,10.03
2023-05-10T06:39:48.741Z,10.03
2023-05-10T06:40:55.436Z,10.05
2023-05-10T06:42:05.921Z,10.08
2023-05-10T06:43:12.201Z,10.09
2023-05-10T06:44:18.054Z,10.10
2023-05-10T06:45:24.132Z,10.12
2023-05-10T06:46:30.370Z,10.13
2023-05-10T06:47:39.257Z,10.10
2023-05-10T06:48:45.824Z,10.03
2023-05-10T06:49:52.386Z,9.98
2023-05-10T06:50:58.364Z,9.99
2023-05-10T06:52:05.824Z,10.05
2023-05-10T06:53:13.808Z,10.09
2023-05-10T06:54:20.160Z,10.15
2023-05-10T06:55:26.945Z,10.23
2023-05-10T06:56:33.126Z,10.32
2023-05-10T06:57:39.499Z,10.38
2023-05-10T06:58:45.989Z,10.41
2023-05-10T06:59:52.636Z,10.42
2023-05-10T07:01:06.403Z,10.45
2023-05-10T07:02:12.419Z,10.47
2023-05-10T07:03:19.233Z,10.54
2023-05-10T07:04:25.633Z,10.62
2023-05-10T07:05:31.921Z,10.78
2023-05-10T07:06:37.886Z,10.95
2023-05-10T07:07:44.027Z,11.13
2023-05-10T07:08:50.278Z,11.34
2023-05-10T07:09:57.790Z,11.58
2023-05-10T07:11:05.337Z,11.83
2023-05-10T07:12:15.426Z,12.05
2023-05-10T07:13:22.241Z,12.24
2023-05-10T07:14:28.849Z,12.40
2023-05-10T07:15:35.400Z,12.61
2023-05-10T07:16:42.080Z,12.77
2023-05-10T07:17:48.844Z,12.90
2023-05-10T07:18:57.044Z,13.01
2023-05-10T07:20:05.331Z,13.09
2023-05-10T07:21:12.249Z,13.19
2023-05-10T07:22:19.198Z,13.36
2023-05-10T07:23:26.647Z,13.56
2023-05-10T07:24:33.295Z,13.80
2023-05-10T07:25:39.381Z,13.94
2023-05-10T07:26:45.571Z,13.98
2023-05-10T07:27:52.208Z,14.04
2023-05-10T07:28:58.344Z,14.03
2023-05-10T07:30:04.935Z,13.98
2023-05-10T07:31:11.279Z,14.06
2023-05-10T07:32:17.654Z,14.21
2023-05-10T07:33:23.737Z,14.34
2023-05-10T07:34:31.349Z,14.46
2023-05-10T07:35:37.316Z,14.63
2023-05-10T07:36:44.371Z,14.73
2023-05-10T07:37:50.426Z,14.78
2023-05-10T07:38:58.841Z,14.80
2023-05-10T07:40:05.891Z,14.82
2023-05-10T07:41:12.858Z,14.85
2023-05-10T07:42:19.226Z,14.95
2023-05-10T07:43:25.390Z,15.06
2023-05-10T07:44:31.541Z,15.18
2023-05-10T07:45:38.128Z,15.27
2023-05-10T07:46:43.990Z,15.27
2023-05-10T07:47:50.376Z,15.28
2023-05-10T07:48:56.941Z,15.23
2023-05-10T07:50:04.378Z,15.15
2023-05-10T07:51:11.761Z,15.07
2023-05-10T07:52:18.067Z,15.01
2023-05-10T07:53:24.641Z,14.96
2023-05-10T07:54:30.500Z,14.86
2023-05-10T07:55:37.879Z,14.84
2023-05-10T07:56:48.548Z,14.82
2023-05-10T07:57:55.175Z,14.74
2023-05-10T07:59:04.736Z,14.65
2023-05-10T08:00:18.840Z,14.57
2023-05-10T08:01:25.749Z,14.51
2023-05-10T08:02:32.304Z,14.49
2023-05-10T08:03:39.249Z,14.46
2023-05-10T08:04:45.660Z,14.34
2023-05-10T08:05:53.088Z,14.19
2023-05-10T08:06:59.456Z,14.07
2023-05-10T08:08:06.144Z,14.00
2023-05-10T08:09:13.755Z,13.96
2023-05-10T08:10:22.050Z,13.94
2023-05-10T08:11:29.300Z,13.94
2023-05-10T08:12:35.573Z,13.94
2023-05-10T08:13:41.610Z,13.95
2023-05-10T08:14:48.867Z,13.99
2023-05-10T08:15:55.734Z,14.02
2023-05-10T08:17:02.169Z,14.01
2023-05-10T08:18:08.556Z,13.99
2023-05-10T08:19:15.438Z,13.97
2023-05-10T08:20:22.032Z,13.89
2023-05-10T08:21:29.202Z,13.85
2023-05-10T08:22:35.727Z,13.77
2023-05-10T08:23:45.173Z,13.73
2023-05-10T08:24:53.681Z,13.76
2023-05-10T08:26:00.211Z,13.80
2023-05-10T08:27:06.494Z,13.85
2023-05-10T08:28:12.648Z,13.90
2023-05-10T08:29:18.796Z,13.96
2023-05-10T08:30:25.482Z,14.02
2023-05-10T08:31:31.720Z,14.10
2023-05-10T08:32:39.833Z,14.22
2023-05-10T08:33:46.376Z,14.39
2023-05-10T08:34:52.910Z,14.56
2023-05-10T08:36:00.193Z,14.67
2023-05-10T08:37:06.354Z,14.79
2023-05-10T08:38:12.347Z,14.93
2023-05-10T08:39:29.261Z,15.03
2023-05-10T08:40:38.559Z,15.20
2023-05-10T08:41:48.529Z,15.45
2023-05-10T08:42:59.861Z,15.73
2023-05-10T08:44:08.832Z,15.95
2023-05-10T08:45:17.021Z,16.09
2023-05-10T08:46:24.391Z,16.14
2023-05-10T08:47:32.010Z,16.14
2023-05-10T08:48:40.088Z,16.06
2023-05-10T08:49:49.131Z,16.00
2023-05-10T08:50:58.697Z,15.97
2023-05-10T08:52:08.598Z,15.97
2023-05-10T08:53:16.313Z,16.02
2023-05-10T08:54:22.685Z,16.01
2023-05-10T08:55:28.951Z,15.97
2023-05-10T08:56:34.798Z,15.85
2023-05-10T08:57:40.714Z,15.77
2023-05-10T08:58:47.056Z,15.75
2023-05-10T08:59:53.194Z,15.72
2023-05-10T09:01:00.393Z,15.69
2023-05-10T09:02:07.433Z,15.71
2023-05-10T09:03:13.878Z,15.72
2023-05-10T09:04:20.449Z,15.69
2023-05-10T09:05:26.936Z,15.67
2023-05-10T09:06:34.152Z,15.66
2023-05-10T09:07:40.080Z,15.67
2023-05-10T09:08:48.727Z,15.66
2023-05-10T09:09:56.921Z,15.67
2023-05-10T09:11:04.148Z,15.67
2023-05-10T09:12:12.694Z,15.70
2023-05-10T09:13:21.226Z,15.72
2023-05-10T09:14:28.171Z,15.72
2023-05-10T09:15:34.268Z,15.74
2023-05-10T09:16:40.833Z,15.74
2023-05-10T09:17:48.589Z,15.71
2023-05-10T09:18:56.209Z,15.70
2023-05-10T09:20:06.202Z,15.72
2023-05-10T09:21:13.884Z,15.76
2023-05-10T09:22:21.250Z,15.85
2023-05-10T09:23:33.676Z,15.93
2023-05-10T09:24:43.585Z,16.00
2023-05-10T09:26:04.071Z,16.06
2023-05-10T09:27:10.875Z,16.16
2023-05-10T09:28:17.352Z,16.24
2023-05-10T09:29:23.890Z,16.31
2023-05-10T09:30:31.898Z,16.35
2023-05-10T09:31:58.275Z,16.39
2023-05-10T09:33:06.292Z,16.44
2023-05-10T09:34:11.996Z,16.52
2023-05-10T09:35:20.415Z,16.58
2023-05-10T09:36:26.361Z,16.63
2023-05-10T09:37:33.744Z,16.66
2023-05-10T09:38:49.938Z,16.70
2023-05-10T09:39:57.946Z,16.73
2023-05-10T09:41:04.661Z,16.74
2023-05-10T09:42:12.065Z,16.73
2023-05-10T09:43:18.214Z,16.70
2023-05-10T09:44:24.618Z,16.69
2023-05-10T09:45:32.166Z,16.68
2023-05-10T09:46:39.184Z,16.68
2023-05-10T09:47:47.269Z,16.64
2023-05-10T09:48:54.617Z,16.57
2023-05-10T09:50:04.681Z,16.52
2023-05-10T09:51:11.819Z,16.45
2023-05-10T09:52:18.272Z,16.35
2023-05-10T09:53:24.712Z,16.24
2023-05-10T09:54:33.894Z,16.12
2023-05-10T09:55:50.374Z,16.01
2023-05-10T09:56:56.592Z,15.93
2023-05-10T09:58:03.819Z,15.88
2023-05-10T09:59:12.403Z,15.88
2023-05-10T10:00:22.898Z,15.89
2023-05-10T10:01:31.616Z,15.87
2023-05-10T10:02:39.787Z,15.80
2023-05-10T10:03:46.851Z,15.73
2023-05-10T10:04:54.425Z,15.65
2023-05-10T10:06:00.699Z,15.61
2023-05-10T10:07:08.054Z,15.61
2023-05-10T10:08:15.426Z,15.62
2023-05-10T10:09:21.796Z,15.64
2023-05-10T10:10:29.300Z,15.70
2023-05-10T10:11:37.570Z,15.76
2023-05-10T10:12:46.031Z,15.83
2023-05-10T10:13:52.755Z,15.89
2023-05-10T10:15:00.865Z,15.95
2023-05-10T10:16:09.514Z,16.00
2023-05-10T10:17:16.136Z,16.01
2023-05-10T10:18:28.091Z,16.01
2023-05-10T10:19:37.125Z,16.03
2023-05-10T10:20:45.444Z,16.06
2023-05-10T10:21:52.576Z,16.10
2023-05-10T10:22:58.972Z,16.11
2023-05-10T10:24:08.608Z,16.11
2023-05-10T10:25:16.566Z,16.10
2023-05-10T10:26:26.248Z,16.03
2023-05-10T10:27:49.609Z,15.97
2023-05-10T10:29:08.901Z,15.91
2023-05-10T10:30:26.261Z,15.88
2023-05-10T10:31:40.230Z,15.84
2023-05-10T10:33:20.122Z,15.80
2023-05-10T10:34:34.802Z,15.73
2023-05-10T10:35:41.982Z,15.70
2023-05-10T10:36:49.902Z,15.70
2023-05-10T10:37:56.392Z,15.72
2023-05-10T10:39:04.095Z,15.74
2023-05-10T10:40:27.372Z,15.79
2023-05-10T10:41:36.717Z,15.79
2023-05-10T10:42:48.451Z,15.77
2023-05-10T10:44:27.929Z,15.75
2023-05-10T10:45:34.443Z,15.76
2023-05-10T10:47:06.956Z,15.75
2023-05-10T10:48:27.084Z,15.76
2023-05-10T10:49:38.289Z,15.81
2023-05-10T10:50:48.471Z,15.90
2023-05-10T10:52:24.942Z,15.97
2023-05-10T10:53:32.054Z,16.03
2023-05-10T10:54:38.361Z,16.07
2023-05-10T10:55:50.533Z,16.09
2023-05-10T10:57:16.781Z,16.12
2023-05-10T10:58:35.492Z,16.16
2023-05-10T10:59:46.691Z,16.23
2023-05-10T11:01:13.612Z,16.29
2023-05-10T11:02:45.692Z,16.33
2023-05-10T11:04:21.668Z,16.36
2023-05-10T11:05:45.952Z,16.41
2023-05-10T11:06:52.065Z,16.43
2023-05-10T11:08:00.166Z,16.48
2023-05-10T11:09:12.890Z,16.54
2023-05-10T11:10:22.151Z,16.63
2023-05-10T11:11:28.451Z,16.73
2023-05-10T11:12:34.635Z,16.82
2023-05-10T11:13:45.464Z,16.91
2023-05-10T11:14:58.523Z,17.02
2023-05-10T11:16:15.025Z,17.23
2023-05-10T11:17:28.561Z,17.47
2023-05-10T11:18:34.570Z,17.68
2023-05-10T11:20:11.583Z,17.89
2023-05-10T11:21:18.226Z,18.09
2023-05-10T11:22:28.768Z,18.22
2023-05-10T11:23:50.144Z,18.40
2023-05-10T11:25:07.902Z,18.64
2023-05-10T11:26:14.848Z,18.85
2023-05-10T11:27:21.721Z,19.00
2023-05-10T11:28:29.446Z,19.09
2023-05-10T11:29:35.466Z,19.12
2023-05-10T11:30:44.353Z,19.20
2023-05-10T11:31:51.045Z,19.33
2023-05-10T11:32:58.046Z,19.48
2023-05-10T11:34:03.925Z,19.55
2023-05-10T11:35:14.840Z,19.56
2023-05-10T11:36:22.685Z,19.56
2023-05-10T11:37:35.165Z,19.51
2023-05-10T11:38:41.279Z,19.47
2023-05-10T11:39:49.669Z,19.46
2023-05-10T11:40:56.116Z,19.52
2023-05-10T11:42:02.813Z,19.55
2023-05-10T11:43:13.260Z,19.49
2023-05-10T11:44:19.404Z,19.48
2023-05-10T11:45:27.811Z,19.46
2023-05-10T11:46:35.514Z,19.44
2023-05-10T11:47:44.568Z,19.32
2023-05-10T11:48:54.465Z,19.20
2023-05-10T11:50:01.116Z,19.10
2023-05-10T11:51:07.590Z,19.01
2023-05-10T11:52:13.639Z,18.92
2023-05-10T11:53:21.524Z,18.81
2023-05-10T11:54:27.743Z,18.74
2023-05-10T11:55:36.252Z,18.68
2023-05-10T11:56:43.095Z,18.70
2023-05-10T11:57:52.697Z,18.78
2023-05-10T11:59:01.222Z,18.89
2023-05-10T12:00:10.428Z,19.01
2023-05-10T12:01:16.471Z,19.12
2023-05-10T12:02:22.651Z,19.18
2023-05-10T12:03:30.159Z,19.23
2023-05-10T12:04:36.502Z,19.27
2023-05-10T12:05:43.200Z,19.30
2023-05-10T12:06:49.788Z,19.29
2023-05-10T12:08:11.499Z,19.28
2023-05-10T12:09:19.202Z,19.25
2023-05-10T12:10:29.867Z,19.25
2023-05-10T12:11:43.556Z,19.25
2023-05-10T12:12:53.542Z,19.28
2023-05-10T12:13:59.684Z,19.33
2023-05-10T12:15:11.554Z,19.38
2023-05-10T12:16:19.319Z,19.43
2023-05-10T12:17:30.019Z,19.42
2023-05-10T12:18:40.079Z,19.41
2023-05-10T12:19:48.359Z,19.31
2023-05-10T12:20:55.747Z,19.21
2023-05-10T12:22:05.356Z,19.12
2023-05-10T12:23:14.387Z,19.05
2023-05-10T12:24:22.566Z,19.01
2023-05-10T12:25:40.460Z,18.99
2023-05-10T12:26:49.668Z,18.94
2023-05-10T12:27:58.790Z,18.90
2023-05-10T12:29:19.310Z,18.85
2023-05-10T12:30:27.494Z,18.74
2023-05-10T12:31:33.756Z,18.66
2023-05-10T12:32:45.188Z,18.60
2023-05-10T12:33:51.690Z,18.55
2023-05-10T12:34:58.710Z,18.46
2023-05-10T12:36:06.085Z,18.29
2023-05-10T12:37:12.063Z,18.13
2023-05-10T12:38:33.479Z,17.98
2023-05-10T12:39:47.518Z,17.82
2023-05-10T12:40:54.152Z,17.74
2023-05-10T12:42:01.374Z,17.68
2023-05-10T12:43:07.517Z,17.67
2023-05-10T12:44:14.169Z,17.68
2023-05-10T12:45:21.011Z,17.72
2023-05-10T12:46:28.884Z,17.75
2023-05-10T12:47:36.069Z,17.76
2023-05-10T12:48:44.327Z,17.77
2023-05-10T12:49:50.758Z,17.78
2023-05-10T12:50:57.022Z,17.79
2023-05-10T12:52:02.758Z,17.76
2023-05-10T12:53:10.026Z,17.74
2023-05-10T12:54:15.988Z,17.70
2023-05-10T12:55:22.152Z,17.65
2023-05-10T12:56:35.136Z,17.59
2023-05-10T12:57:41.127Z,17.55
2023-05-10T12:58:50.050Z,17.52
2023-05-10T12:59:57.217Z,17.48
2023-05-10T13:01:04.274Z,17.44
2023-05-10T13:02:12.162Z,17.39
2023-05-10T13:03:17.961Z,17.35
2023-05-10T13:04:24.672Z,17.31
2023-05-10T13:05:30.821Z,17.28
2023-05-10T13:06:37.081Z,17.27
2023-05-10T13:07:44.966Z,17.24
2023-05-10T13:08:50.751Z,17.22
2023-05-10T13:09:56.664Z,17.19
2023-05-10T13:11:03.844Z,17.16
2023-05-10T13:12:10.923Z,17.13
2023-05-10T13:13:17.279Z,17.10
2023-05-10T13:14:23.628Z,17.08
2023-05-10T13:15:29.883Z,17.06
2023-05-10T13:16:36.466Z,17.04
2023-05-10T13:17:43.774Z,17.03
2023-05-10T13:18:50.285Z,16.99
2023-05-10T13:19:56.841Z,16.95
2023-05-10T13:21:05.160Z,16.91
2023-05-10T13:22:11.594Z,16.91
2023-05-10T13:23:17.953Z,16.92
2023-05-10T13:24:23.762Z,16.91
2023-05-10T13:25:30.108Z,16.92
2023-05-10T13:26:37.689Z,16.93
2023-05-10T13:27:43.803Z,16.92
2023-05-10T13:28:50.665Z,16.91
2023-05-10T13:29:56.459Z,16.91
2023-05-10T13:31:02.781Z,16.94
2023-05-10T13:32:09.713Z,16.97
2023-05-10T13:33:16.174Z,17.02
2023-05-10T13:34:22.518Z,17.05
2023-05-10T13:35:28.310Z,17.07
2023-05-10T13:36:34.649Z,17.12
2023-05-10T13:37:40.566Z,17.18
2023-05-10T13:38:46.704Z,17.21
2023-05-10T13:39:52.694Z,17.22
2023-05-10T13:40:59.148Z,17.23
2023-05-10T13:42:05.326Z,17.25
2023-05-10T13:43:12.430Z,17.29
2023-05-10T13:44:19.175Z,17.33
2023-05-10T13:45:25.235Z,17.38
2023-05-10T13:46:32.256Z,17.42
2023-05-10T13:47:38.450Z,17.46
2023-05-10T13:48:45.126Z,17.50
2023-05-10T13:49:50.937Z,17.53
2023-05-10T13:50:57.300Z,17.56
2023-05-10T13:52:08.367Z,17.59
2023-05-10T13:53:16.938Z,17.63
2023-05-10T13:54:26.492Z,17.65
2023-05-10T13:55:32.793Z,17.67
2023-05-10T13:56:38.934Z,17.67
2023-05-10T13:57:45.105Z,17.69
2023-05-10T13:58:50.873Z,17.72
2023-05-10T13:59:58.346Z,17.76
2023-05-10T14:01:04.162Z,17.81
2023-05-10T14:02:13.806Z,17.84
2023-05-10T14:03:20.130Z,17.85
2023-05-10T14:04:26.594Z,17.86
2023-05-10T14:05:32.439Z,17.88
2023-05-10T14:06:38.893Z,17.88
2023-05-10T14:07:44.734Z,17.88
2023-05-10T14:08:50.695Z,17.90
2023-05-10T14:09:57.814Z,17.93
2023-05-10T14:11:04.248Z,17.96
2023-05-10T14:12:10.508Z,17.99
2023-05-10T14:13:16.637Z,18.05
2023-05-10T14:14:22.977Z,18.12
2023-05-10T14:15:29.158Z,18.20
2023-05-10T14:16:35.570Z,18.27
2023-05-10T14:17:41.974Z,18.32
2023-05-10T14:18:48.677Z,18.35
2023-05-10T14:19:55.467Z,18.36
2023-05-10T14:21:02.709Z,18.36
2023-05-10T14:22:08.481Z,18.37
2023-05-10T14:23:14.252Z,18.37
2023-05-10T14:24:20.403Z,18.41
2023-05-10T14:25:27.346Z,18.43
2023-05-10T14:26:34.368Z,18.44
2023-05-10T14:27:40.718Z,18.46
2023-05-10T14:28:47.338Z,18.49
2023-05-10T14:29:56.300Z,18.51
2023-05-10T14:31:03.464Z,18.58
2023-05-10T14:32:13.601Z,18.77
2023-05-10T14:33:23.480Z,18.96
2023-05-10T14:34:29.580Z,18.99
2023-05-10T14:35:35.633Z,19.06
2023-05-10T14:36:41.623Z,19.13
2023-05-10T14:37:48.760Z,19.23
2023-05-10T14:38:54.928Z,19.43
2023-05-10T14:40:00.886Z,19.88
2023-05-10T14:41:07.059Z,20.62
2023-05-10T14:42:13.098Z,21.39
2023-05-10T14:43:20.584Z,22.48
2023-05-10T14:44:27.208Z,23.47
2023-05-10T14:45:34.166Z,24.26
2023-05-10T14:46:41.389Z,24.36
2023-05-10T14:47:47.986Z,24.57
2023-05-10T14:48:54.562Z,24.42
2023-05-10T14:50:01.255Z,24.03
2023-05-10T14:51:08.028Z,23.54
2023-05-10T14:52:15.930Z,23.12
2023-05-10T14:53:21.975Z,22.78
2023-05-10T14:54:28.775Z,22.46